createdAt,value
2023-02-11T00:00:58.363Z,3.10
2023-02-11T00:03:29.188Z,3.80
2023-02-11T00:06:04.548Z,3.50
2023-02-11T00:08:35.200Z,3.40
2023-02-11T00:11:06.524Z,4.00
2023-02-11T00:13:37.246Z,4.10
2023-02-11T00:16:12.201Z,3.60
2023-02-11T00:18:42.875Z,3.90
2023-02-11T00:21:16.485Z,3.40
2023-02-11T00:23:47.400Z,5.80
2023-02-11T00:26:19.886Z,3.90
2023-02-11T00:28:52.070Z,3.80
2023-02-11T00:31:24.153Z,4.00
2023-02-11T00:33:55.901Z,4.40
2023-02-11T00:36:28.661Z,3.20
2023-02-11T00:39:00.657Z,3.60
2023-02-11T00:41:31.790Z,5.20
2023-02-11T00:44:02.628Z,3.50
2023-02-11T00:46:33.346Z,5.00
2023-02-11T00:49:04.433Z,4.40
2023-02-11T00:51:35.354Z,4.00
2023-02-11T00:54:06.531Z,4.10
2023-02-11T00:56:37.646Z,4.70
2023-02-11T00:59:08.298Z,4.40
2023-02-11T01:01:39.075Z,3.90
2023-02-11T01:04:09.964Z,4.10
2023-02-11T01:06:40.704Z,3.80
2023-02-11T01:09:11.545Z,3.80
2023-02-11T01:11:42.188Z,4.00
2023-02-11T01:14:12.923Z,4.20
2023-02-11T01:16:43.955Z,3.40
2023-02-11T01:19:14.731Z,3.60
2023-02-11T01:21:45.542Z,3.90
2023-02-11T01:24:16.279Z,4.80
2023-02-11T01:26:47.034Z,3.90
2023-02-11T01:29:17.741Z,4.70
2023-02-11T01:31:49.042Z,4.10
2023-02-11T01:34:19.848Z,4.40
2023-02-11T01:36:50.494Z,4.20
2023-02-11T01:39:21.168Z,4.50
2023-02-11T01:41:51.959Z,4.60
2023-02-11T01:44:28.922Z,5.50
2023-02-11T01:46:59.640Z,3.90
2023-02-11T01:49:33.859Z,4.00
2023-02-11T01:52:08.611Z,3.90
2023-02-11T01:55:01.267Z,4.50
2023-02-11T01:57:33.888Z,4.80
2023-02-11T02:00:11.552Z,4.30
2023-02-11T02:02:50.069Z,3.60
2023-02-11T02:05:29.849Z,4.00
2023-02-11T02:10:35.382Z,3.90
2023-02-11T02:13:06.073Z,4.00
2023-02-11T02:15:39.494Z,4.60
2023-02-11T02:18:42.485Z,4.10
2023-02-11T02:21:46.596Z,3.70
2023-02-11T02:27:35.215Z,4.50
2023-02-11T02:30:44.740Z,3.90
2023-02-11T02:33:25.391Z,4.50
2023-02-11T02:36:07.281Z,4.60
2023-02-11T02:38:46.096Z,3.90
2023-02-11T02:41:19.061Z,3.20
2023-02-11T02:43:51.933Z,4.10
2023-02-11T02:46:25.369Z,3.30
2023-02-11T02:48:57.560Z,3.20
2023-02-11T02:51:50.818Z,3.50
2023-02-11T02:54:38.080Z,4.20
2023-02-11T02:57:20.733Z,4.30
2023-02-11T03:00:05.486Z,4.30
2023-02-11T03:02:42.554Z,3.50
2023-02-11T03:05:22.437Z,3.80
2023-02-11T03:08:00.258Z,4.00
2023-02-11T03:10:35.990Z,3.60
2023-02-11T03:13:08.140Z,4.00
2023-02-11T03:15:44.528Z,3.60
2023-02-11T03:18:20.160Z,4.20
2023-02-11T03:20:54.469Z,3.40
2023-02-11T03:23:30.386Z,5.10
2023-02-11T03:26:05.925Z,4.30
2023-02-11T03:28:42.924Z,6.80
2023-02-11T03:31:19.897Z,3.10
2023-02-11T03:34:02.361Z,2.90
2023-02-11T03:36:37.283Z,4.00
2023-02-11T03:39:10.446Z,4.40
2023-02-11T03:41:43.359Z,4.00
2023-02-11T03:44:17.395Z,3.50
2023-02-11T03:46:52.413Z,3.70
2023-02-11T03:49:28.183Z,4.00
2023-02-11T03:52:02.663Z,3.60
2023-02-11T03:54:34.073Z,3.00
2023-02-11T03:57:07.591Z,3.40
2023-02-11T03:59:52.536Z,3.80
2023-02-11T04:02:24.853Z,4.20
2023-02-11T04:04:57.641Z,5.30
2023-02-11T04:07:28.868Z,5.00
2023-02-11T04:09:59.570Z,4.00
2023-02-11T04:12:30.382Z,3.30
2023-02-11T04:15:01.036Z,3.60
2023-02-11T04:17:32.090Z,4.90
2023-02-11T04:20:02.975Z,4.90
2023-02-11T04:22:33.865Z,5.20
2023-02-11T04:25:04.634Z,7.10
2023-02-11T04:27:35.537Z,4.80
2023-02-11T04:30:08.137Z,4.30
2023-02-11T04:32:39.301Z,4.10
2023-02-11T04:35:10.641Z,4.20
2023-02-11T04:37:41.363Z,4.30
2023-02-11T04:40:13.609Z,3.30
2023-02-11T04:42:44.554Z,3.60
2023-02-11T04:45:15.395Z,4.70
2023-02-11T04:47:46.298Z,3.80
2023-02-11T04:50:18.486Z,3.90
2023-02-11T04:52:49.654Z,3.50
2023-02-11T04:55:20.520Z,3.50
2023-02-11T04:57:51.192Z,3.50
2023-02-11T05:00:22.284Z,3.50
2023-02-11T05:02:53.318Z,3.70
2023-02-11T05:05:24.059Z,4.30
2023-02-11T05:07:54.795Z,3.60
2023-02-11T05:10:25.754Z,4.20
2023-02-11T05:12:56.500Z,3.90
2023-02-11T05:15:27.622Z,4.40
2023-02-11T05:17:58.705Z,3.30
2023-02-11T05:20:29.341Z,4.80
2023-02-11T05:23:00.040Z,3.40
2023-02-11T05:25:30.941Z,3.60
2023-02-11T05:28:01.854Z,3.30
2023-02-11T05:30:32.996Z,3.60
2023-02-11T05:33:03.818Z,2.90
2023-02-11T05:35:34.519Z,4.20
2023-02-11T05:38:05.291Z,3.70
2023-02-11T05:40:36.023Z,4.30
2023-02-11T05:43:07.041Z,4.10
2023-02-11T05:45:37.730Z,3.10
2023-02-11T05:48:08.851Z,4.20
2023-02-11T05:50:39.592Z,3.70
2023-02-11T05:53:10.409Z,4.80
2023-02-11T05:55:41.389Z,3.10
2023-02-11T05:58:12.134Z,4.00
2023-02-11T06:00:43.188Z,4.00
2023-02-11T06:03:14.116Z,3.30
2023-02-11T06:05:45.238Z,4.60
2023-02-11T06:08:15.981Z,4.10
2023-02-11T06:10:48.987Z,3.60
2023-02-11T06:13:19.916Z,3.80
2023-02-11T06:15:58.506Z,3.60
2023-02-11T06:18:29.602Z,3.50
2023-02-11T06:21:00.521Z,3.60
2023-02-11T06:23:31.417Z,3.70
2023-02-11T06:26:05.996Z,3.30
2023-02-11T06:28:39.336Z,3.50
2023-02-11T06:31:12.183Z,3.70
2023-02-11T06:33:43.560Z,3.50
2023-02-11T06:36:17.587Z,3.70
2023-02-11T06:38:48.989Z,3.30
2023-02-11T06:41:24.122Z,3.80
2023-02-11T06:43:55.377Z,4.40
2023-02-11T06:46:26.143Z,3.50
2023-02-11T06:48:56.956Z,3.40
2023-02-11T06:51:28.407Z,3.80
2023-02-11T06:53:59.256Z,3.90
2023-02-11T06:56:30.517Z,4.20
2023-02-11T06:59:01.656Z,4.10
2023-02-11T07:01:32.600Z,4.20
2023-02-11T07:04:03.707Z,3.90
2023-02-11T07:06:34.804Z,3.60
2023-02-11T07:09:06.586Z,4.30
2023-02-11T07:11:37.487Z,4.10
2023-02-11T07:14:09.737Z,5.40
2023-02-11T07:16:41.418Z,3.80
2023-02-11T07:19:12.384Z,4.20
2023-02-11T07:21:43.196Z,3.70
2023-02-11T07:24:14.345Z,3.90
2023-02-11T07:26:45.591Z,4.70
2023-02-11T07:29:16.733Z,3.80
2023-02-11T07:31:47.541Z,4.50
2023-02-11T07:34:18.626Z,4.10
2023-02-11T07:36:50.292Z,4.60
2023-02-11T07:39:21.992Z,5.00
2023-02-11T07:41:52.783Z,4.00
2023-02-11T07:44:23.617Z,3.90
2023-02-11T07:46:54.437Z,3.80
2023-02-11T07:49:25.410Z,3.80
2023-02-11T07:51:56.544Z,3.60
2023-02-11T07:54:27.875Z,4.10
2023-02-11T07:56:58.868Z,4.90
2023-02-11T07:59:29.679Z,3.60
2023-02-11T08:02:00.433Z,4.20
2023-02-11T08:04:31.630Z,5.80
2023-02-11T08:07:02.383Z,7.40
2023-02-11T08:09:34.583Z,10.20
2023-02-11T08:12:05.709Z,12.20
2023-02-11T08:14:36.530Z,14.00
2023-02-11T08:17:07.597Z,13.60
2023-02-11T08:19:38.542Z,13.40
2023-02-11T08:22:09.280Z,12.80
2023-02-11T08:24:40.025Z,13.30
2023-02-11T08:27:10.769Z,15.00
2023-02-11T08:29:41.696Z,15.20
2023-02-11T08:32:12.652Z,14.40
2023-02-11T08:34:43.490Z,14.10
2023-02-11T08:37:14.305Z,13.80
2023-02-11T08:39:47.287Z,16.10
2023-02-11T08:42:18.045Z,14.50
2023-02-11T08:44:48.786Z,15.60
2023-02-11T08:47:19.631Z,14.40
2023-02-11T08:49:50.365Z,15.00
2023-02-11T08:52:21.206Z,13.30
2023-02-11T08:54:52.224Z,15.10
2023-02-11T08:57:22.986Z,14.40
2023-02-11T08:59:53.928Z,15.40
2023-02-11T09:02:24.735Z,12.60
2023-02-11T09:04:55.631Z,12.90
2023-02-11T09:07:26.460Z,11.70
2023-02-11T09:09:57.557Z,11.20
2023-02-11T09:12:28.520Z,11.50
2023-02-11T09:14:59.601Z,9.50
2023-02-11T09:17:30.238Z,12.30
2023-02-11T09:20:01.164Z,9.20
2023-02-11T09:22:31.986Z,9.00
2023-02-11T09:25:03.256Z,8.10
2023-02-11T09:27:34.409Z,9.70
2023-02-11T09:30:05.928Z,7.30
2023-02-11T09:32:37.310Z,7.00
2023-02-11T09:35:09.475Z,7.70
2023-02-11T09:37:41.873Z,7.70
2023-02-11T09:40:14.453Z,6.60
2023-02-11T09:42:51.731Z,7.90
2023-02-11T09:45:25.941Z,6.60
2023-02-11T09:48:00.569Z,7.90
2023-02-11T09:50:35.684Z,6.90
2023-02-11T09:53:13.101Z,7.50
2023-02-11T09:55:46.160Z,6.70
2023-02-11T09:58:22.124Z,5.80
2023-02-11T10:01:03.572Z,6.20
2023-02-11T10:04:02.082Z,6.50
2023-02-11T10:06:42.208Z,6.00
2023-02-11T10:09:25.676Z,5.20
2023-02-11T10:12:04.863Z,6.70
2023-02-11T10:14:56.529Z,7.00
2023-02-11T10:17:38.047Z,5.20
2023-02-11T10:20:25.033Z,5.70
2023-02-11T10:23:01.074Z,7.40
2023-02-11T10:25:38.425Z,5.90
2023-02-11T10:28:17.059Z,5.20
2023-02-11T10:30:57.659Z,4.80
2023-02-11T10:33:32.692Z,4.70
2023-02-11T10:36:04.963Z,6.10
2023-02-11T10:38:36.606Z,4.30
2023-02-11T10:41:11.485Z,5.60
2023-02-11T10:43:45.248Z,5.60
2023-02-11T10:48:51.719Z,4.60
2023-02-11T10:51:25.230Z,4.70
2023-02-11T10:54:19.576Z,5.50
2023-02-11T10:56:52.313Z,5.30
2023-02-11T10:59:30.647Z,8.10
2023-02-11T11:02:03.858Z,4.70
2023-02-11T11:04:44.133Z,6.00
2023-02-11T11:07:19.468Z,6.90
2023-02-11T11:09:53.396Z,5.10
2023-02-11T11:12:40.280Z,5.70
2023-02-11T11:15:23.026Z,6.10
2023-02-11T11:18:20.928Z,5.20
2023-02-11T11:21:00.046Z,5.00
2023-02-11T11:23:32.088Z,5.80
2023-02-11T11:26:06.498Z,5.20
2023-02-11T11:28:41.911Z,5.10
2023-02-11T11:31:20.141Z,5.30
2023-02-11T11:33:53.275Z,7.30
2023-02-11T11:36:32.365Z,5.20
2023-02-11T11:39:17.035Z,6.50
2023-02-11T11:41:55.850Z,5.00
2023-02-11T11:44:32.430Z,4.60
2023-02-11T11:47:21.689Z,4.60
2023-02-11T11:50:02.304Z,6.20
2023-02-11T11:52:42.965Z,4.40
2023-02-11T11:55:20.807Z,4.90
2023-02-11T11:57:52.531Z,3.80
2023-02-11T12:00:29.248Z,4.60
2023-02-11T12:03:36.790Z,5.10
2023-02-11T12:06:19.939Z,3.80
2023-02-11T12:09:01.982Z,5.00
2023-02-11T12:11:45.447Z,3.80
2023-02-11T12:14:32.245Z,4.80
2023-02-11T12:17:12.755Z,5.50
2023-02-11T12:20:02.618Z,3.80
2023-02-11T12:22:46.027Z,3.70
2023-02-11T12:25:29.160Z,4.40
2023-02-11T12:28:16.201Z,3.30
2023-02-11T12:31:07.869Z,3.70
2023-02-11T12:33:57.454Z,3.70
2023-02-11T12:36:43.781Z,3.70
2023-02-11T12:39:26.329Z,3.90
2023-02-11T12:42:43.235Z,3.40
2023-02-11T12:45:29.631Z,4.80
2023-02-11T12:48:22.898Z,3.50
2023-02-11T12:50:59.446Z,4.60
2023-02-11T12:53:42.974Z,3.70
2023-02-11T12:56:20.203Z,3.60
2023-02-11T12:58:55.639Z,4.10
2023-02-11T13:01:32.491Z,3.20
2023-02-11T13:04:13.180Z,3.30
2023-02-11T13:06:48.297Z,3.70
2023-02-11T13:09:23.617Z,4.10
2023-02-11T13:12:20.256Z,4.10
2023-02-11T13:14:54.804Z,3.10
2023-02-11T13:17:34.834Z,4.00
2023-02-11T13:20:19.767Z,3.10
2023-02-11T13:23:00.677Z,3.70
2023-02-11T13:25:41.933Z,3.80
2023-02-11T13:28:27.027Z,3.60
2023-02-11T13:31:03.006Z,3.60
2023-02-11T13:33:43.143Z,3.00
2023-02-11T13:36:23.750Z,2.80
2023-02-11T13:39:01.077Z,3.10
2023-02-11T13:41:38.306Z,3.00
2023-02-11T13:44:26.679Z,3.60
2023-02-11T13:47:01.642Z,3.80
2023-02-11T13:49:40.772Z,4.00
2023-02-11T13:52:25.315Z,3.40
2023-02-11T13:54:58.977Z,3.80
2023-02-11T13:57:39.999Z,3.60
2023-02-11T14:00:43.519Z,3.10
2023-02-11T14:03:59.018Z,3.20
2023-02-11T14:07:00.485Z,3.30
2023-02-11T14:09:42.090Z,3.60
2023-02-11T14:12:37.210Z,3.00
2023-02-11T14:15:39.321Z,3.40
2023-02-11T14:18:39.797Z,3.40
2023-02-11T14:21:18.724Z,4.70
2023-02-11T14:23:50.764Z,5.20
2023-02-11T14:26:36.410Z,3.50
2023-02-11T14:29:19.064Z,3.00
2023-02-11T14:31:59.023Z,3.70
2023-02-11T14:34:52.632Z,4.00
2023-02-11T14:37:37.992Z,3.30
2023-02-11T14:40:27.154Z,3.00
2023-02-11T14:43:03.086Z,3.60
2023-02-11T14:45:36.707Z,3.70
2023-02-11T14:48:13.695Z,3.70
2023-02-11T14:50:47.426Z,4.10
2023-02-11T14:53:21.614Z,3.70
2023-02-11T14:55:53.728Z,3.30
2023-02-11T14:58:26.262Z,3.90
2023-02-11T15:01:00.211Z,3.30
2023-02-11T15:03:37.609Z,3.80
2023-02-11T15:06:16.848Z,4.40
2023-02-11T15:08:51.057Z,3.60
2023-02-11T15:11:25.040Z,3.20
2023-02-11T15:13:57.343Z,3.30
2023-02-11T15:16:29.778Z,2.70
2023-02-11T15:19:05.630Z,3.60
2023-02-11T15:21:37.761Z,2.80
2023-02-11T15:24:27.506Z,2.70
2023-02-11T15:27:14.679Z,2.80
2023-02-11T15:29:50.632Z,3.00
2023-02-11T15:32:23.747Z,3.30
2023-02-11T15:34:57.394Z,3.30
2023-02-11T15:40:13.060Z,3.00
2023-02-11T15:42:54.992Z,2.80
2023-02-11T15:45:30.559Z,3.00
2023-02-11T15:48:10.939Z,3.30
2023-02-11T15:50:51.658Z,3.40
2023-02-11T15:53:28.988Z,3.00
2023-02-11T15:56:09.209Z,2.80
2023-02-11T15:58:42.096Z,2.80
2023-02-11T16:01:13.710Z,2.90
2023-02-11T16:03:50.395Z,3.40
2023-02-11T16:06:25.479Z,2.90
2023-02-11T16:09:21.825Z,3.10
2023-02-11T16:12:03.614Z,3.30
2023-02-11T16:14:41.672Z,3.00
2023-02-11T16:17:14.493Z,3.60
2023-02-11T16:19:49.714Z,3.30
2023-02-11T16:22:25.656Z,3.30
2023-02-11T16:24:59.445Z,4.00
2023-02-11T16:27:37.001Z,3.50
2023-02-11T16:30:24.527Z,3.40
2023-02-11T16:32:57.005Z,3.70
2023-02-11T16:35:27.838Z,4.00
2023-02-11T16:37:59.499Z,3.30
2023-02-11T16:40:30.663Z,3.20
2023-02-11T16:43:01.819Z,3.00
2023-02-11T16:45:33.036Z,3.20
2023-02-11T16:48:04.330Z,2.70
2023-02-11T16:50:35.646Z,3.30
2023-02-11T16:53:07.536Z,2.90
2023-02-11T16:55:38.895Z,3.70
2023-02-11T16:58:10.518Z,3.00
2023-02-11T17:00:41.491Z,3.30
2023-02-11T17:03:21.716Z,3.00
2023-02-11T17:05:55.941Z,3.10
2023-02-11T17:08:27.022Z,3.30
2023-02-11T17:10:58.020Z,2.90
2023-02-11T17:13:28.832Z,2.90
2023-02-11T17:15:59.983Z,2.90
2023-02-11T17:18:30.851Z,2.90
2023-02-11T17:21:02.316Z,2.60
2023-02-11T17:23:33.203Z,2.80
2023-02-11T17:26:04.344Z,3.30
2023-02-11T17:28:35.613Z,2.60
2023-02-11T17:31:10.478Z,3.30
2023-02-11T17:33:41.413Z,3.10
2023-02-11T17:36:13.650Z,2.70
2023-02-11T17:38:44.617Z,2.80
2023-02-11T17:41:15.471Z,2.50
2023-02-11T17:43:46.371Z,2.60
2023-02-11T17:46:17.289Z,2.90
2023-02-11T17:48:48.396Z,2.50
2023-02-11T17:51:26.938Z,2.80
2023-02-11T17:54:00.596Z,2.50
2023-02-11T17:59:02.604Z,2.30
2023-02-11T18:01:36.843Z,2.70
2023-02-11T18:04:09.565Z,2.30
2023-02-11T18:06:40.590Z,2.70
2023-02-11T18:09:11.577Z,2.40
2023-02-11T18:11:43.200Z,2.40
2023-02-11T18:14:14.255Z,2.50
2023-02-11T18:16:46.074Z,3.00
2023-02-11T18:19:17.206Z,2.60
2023-02-11T18:21:50.486Z,2.60
2023-02-11T18:24:21.910Z,2.40
2023-02-11T18:26:52.896Z,2.50
2023-02-11T18:29:23.808Z,2.20
2023-02-11T18:31:57.935Z,2.40
2023-02-11T18:34:29.273Z,2.80
2023-02-11T18:37:00.172Z,2.80
2023-02-11T18:39:31.499Z,3.20
2023-02-11T18:42:02.474Z,2.60
2023-02-11T18:44:33.248Z,2.50
2023-02-11T18:47:04.642Z,2.70
2023-02-11T18:49:36.815Z,3.30
2023-02-11T18:52:08.377Z,2.60
2023-02-11T18:54:39.214Z,2.70
2023-02-11T18:57:10.264Z,2.60
2023-02-11T18:59:41.123Z,2.60
2023-02-11T19:02:13.812Z,2.80
2023-02-11T19:04:45.297Z,3.30
2023-02-11T19:07:16.521Z,2.40
2023-02-11T19:09:47.301Z,2.30
2023-02-11T19:12:21.480Z,2.40
2023-02-11T19:14:53.052Z,2.00
2023-02-11T19:17:23.933Z,2.20
2023-02-11T19:19:55.279Z,2.40
2023-02-11T19:22:26.272Z,2.30
2023-02-11T19:24:57.587Z,2.10
2023-02-11T19:27:28.785Z,2.80
2023-02-11T19:29:59.605Z,2.70
2023-02-11T19:32:31.350Z,2.70
2023-02-11T19:35:02.175Z,2.40
2023-02-11T19:37:33.210Z,2.20
2023-02-11T19:40:04.780Z,2.60
2023-02-11T19:42:35.703Z,4.70
2023-02-11T19:45:07.615Z,2.10
2023-02-11T19:47:38.662Z,2.40
2023-02-11T19:50:12.007Z,2.40
2023-02-11T19:52:43.414Z,2.40
2023-02-11T19:55:14.451Z,3.30
2023-02-11T19:57:45.266Z,2.50
2023-02-11T20:00:17.814Z,2.70
2023-02-11T20:02:48.806Z,2.50
2023-02-11T20:05:20.064Z,2.60
2023-02-11T20:07:50.801Z,2.20
2023-02-11T20:10:21.960Z,3.60
2023-02-11T20:12:53.062Z,2.50
2023-02-11T20:15:24.116Z,2.40
2023-02-11T20:17:55.248Z,3.10
2023-02-11T20:20:26.257Z,3.00
2023-02-11T20:22:58.292Z,2.40
2023-02-11T20:25:29.225Z,3.70
2023-02-11T20:28:00.015Z,2.50
2023-02-11T20:30:30.884Z,2.30
2023-02-11T20:33:01.748Z,2.80
2023-02-11T20:35:32.668Z,3.50
2023-02-11T20:38:04.135Z,2.30
2023-02-11T20:40:35.751Z,2.80
2023-02-11T20:43:06.530Z,2.60
2023-02-11T20:45:39.511Z,2.60
2023-02-11T20:48:10.653Z,2.50
2023-02-11T20:50:41.794Z,2.40
2023-02-11T20:53:12.785Z,2.50
2023-02-11T20:55:43.790Z,2.60
2023-02-11T20:58:14.685Z,2.90
2023-02-11T21:00:45.674Z,2.10
2023-02-11T21:03:16.493Z,2.30
2023-02-11T21:05:47.391Z,3.60
2023-02-11T21:08:18.373Z,2.20
2023-02-11T21:10:50.882Z,2.50
2023-02-11T21:13:21.566Z,2.90
2023-02-11T21:15:57.020Z,2.20
2023-02-11T21:18:28.623Z,2.20
2023-02-11T21:20:59.869Z,3.20
2023-02-11T21:23:30.945Z,2.40
2023-02-11T21:26:01.655Z,2.50
2023-02-11T21:28:32.982Z,2.60
2023-02-11T21:31:04.716Z,2.50
2023-02-11T21:33:36.097Z,2.50
2023-02-11T21:36:08.778Z,2.50
2023-02-11T21:38:39.487Z,2.30
2023-02-11T21:41:10.594Z,2.30
2023-02-11T21:43:42.147Z,2.70
2023-02-11T21:46:15.369Z,2.50
2023-02-11T21:48:46.395Z,2.60
2023-02-11T21:51:19.049Z,2.40
2023-02-11T21:53:53.895Z,2.40
2023-02-11T21:56:26.371Z,2.20
2023-02-11T21:58:58.821Z,2.60
2023-02-11T22:01:32.182Z,2.50
2023-02-11T22:04:03.190Z,2.60
2023-02-11T22:06:35.847Z,2.40
2023-02-11T22:09:09.538Z,2.50
2023-02-11T22:11:40.482Z,2.90
2023-02-11T22:14:11.401Z,2.70
2023-02-11T22:16:42.340Z,2.10
2023-02-11T22:19:13.348Z,2.20
2023-02-11T22:21:44.466Z,2.50
2023-02-11T22:24:15.213Z,2.40
2023-02-11T22:26:45.965Z,2.20
2023-02-11T22:29:16.778Z,2.30
2023-02-11T22:31:47.603Z,2.70
2023-02-11T22:34:18.396Z,2.20
2023-02-11T22:36:49.278Z,2.10
2023-02-11T22:39:20.220Z,2.60
2023-02-11T22:41:51.327Z,2.40
2023-02-11T22:44:22.017Z,2.10
2023-02-11T22:46:53.603Z,2.40
2023-02-11T22:49:25.210Z,2.20
2023-02-11T22:51:55.895Z,2.60
2023-02-11T22:54:26.840Z,2.50
2023-02-11T22:56:57.503Z,2.50
2023-02-11T22:59:28.402Z,2.00
2023-02-11T23:01:59.197Z,2.50
2023-02-11T23:04:30.029Z,2.20
2023-02-11T23:07:00.734Z,2.40
2023-02-11T23:09:31.508Z,2.40
2023-02-11T23:12:02.316Z,2.30
2023-02-11T23:14:33.029Z,2.50
2023-02-11T23:17:03.787Z,3.00
2023-02-11T23:19:34.730Z,2.20
2023-02-11T23:22:05.546Z,2.10
2023-02-11T23:24:36.231Z,2.30
2023-02-11T23:27:07.230Z,2.40
2023-02-11T23:29:37.993Z,2.20
2023-02-11T23:32:08.816Z,2.70
2023-02-11T23:34:39.769Z,2.30
2023-02-11T23:37:10.508Z,2.50
2023-02-11T23:39:41.457Z,2.60
2023-02-11T23:42:12.191Z,2.30
2023-02-11T23:44:43.033Z,2.20
2023-02-11T23:47:13.767Z,2.70
2023-02-11T23:49:44.434Z,1.90
2023-02-11T23:52:15.458Z,2.00
2023-02-11T23:54:48.297Z,2.10
2023-02-11T23:57:19.133Z,2.30
2023-02-11T23:59:52.691Z,2.40
